createdAt,value
2023-05-14T00:03:29.945Z,6.84
2023-05-14T00:07:33.077Z,6.84
2023-05-14T00:11:46.749Z,6.84
2023-05-14T00:15:50.981Z,6.75
2023-05-14T00:20:02.582Z,6.73
2023-05-14T00:24:06.079Z,6.68
2023-05-14T00:28:10.224Z,6.67
2023-05-14T00:32:12.786Z,6.64
2023-05-14T00:36:15.672Z,6.58
2023-05-14T00:40:22.110Z,6.50
2023-05-14T00:44:26.258Z,6.45
2023-05-14T00:48:29.168Z,6.43
2023-05-14T00:52:32.746Z,6.40
2023-05-14T00:56:37.003Z,6.40
2023-05-14T01:00:42.638Z,6.44
2023-05-14T01:04:50.293Z,6.50
2023-05-14T01:09:02.779Z,6.50
2023-05-14T01:13:13.259Z,6.44
2023-05-14T01:17:20.306Z,6.46
2023-05-14T01:21:38.178Z,6.35
2023-05-14T01:25:41.166Z,6.28
2023-05-14T01:29:51.352Z,6.19
2023-05-14T01:33:56.253Z,6.12
2023-05-14T01:38:03.445Z,6.02
2023-05-14T01:42:08.535Z,5.93
2023-05-14T01:46:11.589Z,5.91
2023-05-14T01:50:14.861Z,5.85
2023-05-14T01:54:18.862Z,5.78
2023-05-14T01:58:21.662Z,5.71
2023-05-14T02:02:24.642Z,5.61
2023-05-14T02:06:27.356Z,5.52
2023-05-14T02:10:31.424Z,5.50
2023-05-14T02:14:34.622Z,5.43
2023-05-14T02:18:37.194Z,5.39
2023-05-14T02:22:42.343Z,5.38
2023-05-14T02:26:46.570Z,5.26
2023-05-14T02:30:49.302Z,5.27
2023-05-14T02:34:51.714Z,5.22
2023-05-14T02:38:54.518Z,5.12
2023-05-14T02:42:58.834Z,5.17
2023-05-14T02:47:01.873Z,5.19
2023-05-14T02:51:05.135Z,5.21
2023-05-14T02:55:08.649Z,5.22
2023-05-14T02:59:12.435Z,5.28
2023-05-14T03:03:16.032Z,5.29
2023-05-14T03:07:19.071Z,5.28
2023-05-14T03:11:22.481Z,5.33
2023-05-14T03:15:28.582Z,5.37
2023-05-14T03:19:31.517Z,5.45
2023-05-14T03:23:35.237Z,5.55
2023-05-14T03:27:37.684Z,5.71
2023-05-14T03:31:42.220Z,5.78
2023-05-14T03:35:45.197Z,5.83
2023-05-14T03:39:48.322Z,6.00
2023-05-14T03:43:51.161Z,6.11
2023-05-14T03:47:55.638Z,6.25
2023-05-14T03:51:59.660Z,6.48
2023-05-14T03:56:02.766Z,6.76
2023-05-14T04:00:06.255Z,6.99
2023-05-14T04:04:10.918Z,7.37
2023-05-14T04:08:13.994Z,7.71
2023-05-14T04:12:17.116Z,8.34
2023-05-14T04:16:20.288Z,9.32
2023-05-14T04:20:24.700Z,10.37
2023-05-14T04:24:27.844Z,11.70
2023-05-14T04:28:31.005Z,13.36
2023-05-14T04:32:33.785Z,15.03
2023-05-14T04:36:37.766Z,16.31
2023-05-14T04:40:41.625Z,17.36
2023-05-14T04:44:44.571Z,18.43
2023-05-14T04:48:48.046Z,19.34
2023-05-14T04:52:52.746Z,20.20
2023-05-14T04:56:56.507Z,21.03
2023-05-14T05:01:03.031Z,21.84
2023-05-14T05:05:06.588Z,22.72
2023-05-14T05:09:11.155Z,23.65
2023-05-14T05:13:14.486Z,23.76
2023-05-14T05:17:17.380Z,24.95
2023-05-14T05:21:20.542Z,25.70
2023-05-14T05:25:25.525Z,26.13
2023-05-14T05:29:28.636Z,26.79
2023-05-14T05:33:31.709Z,27.19
2023-05-14T05:37:34.591Z,27.67
2023-05-14T05:41:38.776Z,26.95
2023-05-14T05:45:42.252Z,27.59
2023-05-14T05:49:45.264Z,28.01
2023-05-14T05:53:48.698Z,26.98
2023-05-14T05:57:53.322Z,28.13
2023-05-14T06:01:56.321Z,28.32
2023-05-14T06:05:59.384Z,29.26
2023-05-14T06:10:02.434Z,29.16
2023-05-14T06:14:07.174Z,29.47
2023-05-14T06:18:10.334Z,30.74
2023-05-14T06:22:14.812Z,29.34
2023-05-14T06:26:18.037Z,30.28
2023-05-14T06:30:23.214Z,30.54
2023-05-14T06:34:26.263Z,29.66
2023-05-14T06:38:29.306Z,30.37
2023-05-14T06:42:31.960Z,30.39
2023-05-14T06:46:36.528Z,30.61
2023-05-14T06:50:39.592Z,30.31
2023-05-14T06:54:42.858Z,30.09
2023-05-14T06:58:45.910Z,30.99
2023-05-14T07:02:53.562Z,30.73
2023-05-14T07:06:56.749Z,31.97
2023-05-14T07:11:00.506Z,30.81
2023-05-14T07:15:03.506Z,31.12
2023-05-14T07:19:07.995Z,31.45
2023-05-14T07:23:10.741Z,31.22
2023-05-14T07:27:13.374Z,31.77
2023-05-14T07:31:16.004Z,31.48
2023-05-14T07:35:22.787Z,30.02
2023-05-14T07:39:28.586Z,31.54
2023-05-14T07:43:31.889Z,31.92
2023-05-14T07:47:34.841Z,30.39
2023-05-14T07:51:39.324Z,30.82
2023-05-14T07:55:42.350Z,32.06
2023-05-14T07:59:45.762Z,30.40
2023-05-14T08:03:48.868Z,30.84
2023-05-14T08:07:53.356Z,30.95
2023-05-14T08:11:56.237Z,31.58
2023-05-14T08:15:59.268Z,31.18
2023-05-14T08:20:02.361Z,30.51
2023-05-14T08:24:07.276Z,28.95
2023-05-14T08:28:10.128Z,30.65
2023-05-14T08:32:22.899Z,30.60
2023-05-14T08:36:26.520Z,31.31
2023-05-14T08:40:33.149Z,29.69
2023-05-14T08:44:41.044Z,29.30
2023-05-14T08:48:48.168Z,30.52
2023-05-14T08:52:50.998Z,29.52
2023-05-14T08:56:55.917Z,29.10
2023-05-14T09:01:00.743Z,29.59
2023-05-14T09:05:04.498Z,30.09
2023-05-14T09:09:07.462Z,28.73
2023-05-14T09:13:12.121Z,29.41
2023-05-14T09:17:15.421Z,28.51
2023-05-14T09:21:20.047Z,28.41
2023-05-14T09:25:28.637Z,28.53
2023-05-14T09:29:33.103Z,28.96
2023-05-14T09:33:37.269Z,27.75
2023-05-14T09:37:43.904Z,27.06
2023-05-14T09:41:47.076Z,27.33
2023-05-14T09:45:51.534Z,27.16
2023-05-14T09:49:54.706Z,26.82
2023-05-14T09:53:57.595Z,26.73
2023-05-14T09:58:00.945Z,26.66
2023-05-14T10:02:06.952Z,26.91
2023-05-14T10:06:14.633Z,26.02
2023-05-14T10:10:20.272Z,26.07
2023-05-14T10:14:30.851Z,26.26
2023-05-14T10:18:41.355Z,26.58
2023-05-14T10:22:44.372Z,26.40
2023-05-14T10:26:47.343Z,26.42
2023-05-14T10:30:51.429Z,26.66
2023-05-14T10:34:55.895Z,25.28
2023-05-14T10:38:58.934Z,26.34
2023-05-14T10:43:02.013Z,26.33
2023-05-14T10:47:05.466Z,26.86
2023-05-14T10:51:11.873Z,26.26
2023-05-14T10:55:17.299Z,26.76
2023-05-14T10:59:20.207Z,26.15
2023-05-14T11:03:23.641Z,26.41
2023-05-14T11:07:30.502Z,25.47
2023-05-14T11:11:34.100Z,26.63
2023-05-14T11:15:38.506Z,25.83
2023-05-14T11:19:44.255Z,25.72
2023-05-14T11:23:49.909Z,25.75
2023-05-14T11:27:56.229Z,24.66
2023-05-14T11:31:59.850Z,25.11
2023-05-14T11:36:03.291Z,25.35
2023-05-14T11:40:11.158Z,25.78
2023-05-14T11:44:14.501Z,25.53
2023-05-14T11:48:18.330Z,24.36
2023-05-14T11:52:22.340Z,24.82
2023-05-14T11:56:26.732Z,24.94
2023-05-14T12:00:29.509Z,25.63
2023-05-14T12:04:33.190Z,25.12
2023-05-14T12:08:36.181Z,24.63
2023-05-14T12:12:40.515Z,24.03
2023-05-14T12:16:44.866Z,24.57
2023-05-14T12:20:49.067Z,24.40
2023-05-14T12:24:58.806Z,24.24
2023-05-14T12:29:05.068Z,24.28
2023-05-14T12:33:08.074Z,23.44
2023-05-14T12:37:11.081Z,23.98
2023-05-14T12:41:13.918Z,24.16
2023-05-14T12:45:18.244Z,24.46
2023-05-14T12:49:20.961Z,24.37
2023-05-14T12:53:24.220Z,24.30
2023-05-14T12:57:27.926Z,23.99
2023-05-14T13:01:32.300Z,24.42
2023-05-14T13:05:35.548Z,24.30
2023-05-14T13:09:38.530Z,24.67
2023-05-14T13:13:41.310Z,24.28
2023-05-14T13:17:45.785Z,24.01
2023-05-14T13:21:48.754Z,23.92
2023-05-14T13:25:51.920Z,23.97
2023-05-14T13:29:54.845Z,23.50
2023-05-14T13:33:59.721Z,23.35
2023-05-14T13:38:03.223Z,23.36
2023-05-14T13:42:07.072Z,23.53
2023-05-14T13:46:09.626Z,23.30
2023-05-14T13:50:15.027Z,22.94
2023-05-14T13:54:18.188Z,23.25
2023-05-14T13:58:21.180Z,23.30
2023-05-14T14:02:24.329Z,23.42
2023-05-14T14:06:29.093Z,23.44
2023-05-14T14:10:32.487Z,23.23
2023-05-14T14:14:35.825Z,23.08
2023-05-14T14:18:39.155Z,23.23
2023-05-14T14:22:44.899Z,23.34
2023-05-14T14:26:47.948Z,23.30
2023-05-14T14:30:54.371Z,23.52
2023-05-14T14:34:59.283Z,23.70
2023-05-14T14:39:03.834Z,23.60
2023-05-14T14:43:06.943Z,23.26
2023-05-14T14:47:10.161Z,22.98
2023-05-14T14:51:13.533Z,22.95
2023-05-14T14:55:17.893Z,22.59
2023-05-14T14:59:20.986Z,22.47
2023-05-14T15:03:25.428Z,22.29
2023-05-14T15:07:33.100Z,22.36
2023-05-14T15:11:40.206Z,22.15
2023-05-14T15:15:43.192Z,22.05
2023-05-14T15:19:46.124Z,22.17
2023-05-14T15:23:50.065Z,22.18
2023-05-14T15:27:54.351Z,21.97
2023-05-14T15:31:57.397Z,21.92
2023-05-14T15:36:00.228Z,22.16
2023-05-14T15:40:03.322Z,22.04
2023-05-14T15:44:08.114Z,22.11
2023-05-14T15:48:11.117Z,22.08
2023-05-14T15:52:15.464Z,22.04
2023-05-14T15:56:18.640Z,21.93
2023-05-14T16:00:25.121Z,21.90
2023-05-14T16:04:28.650Z,21.83
2023-05-14T16:08:31.789Z,21.80
2023-05-14T16:12:36.588Z,21.73
2023-05-14T16:16:40.989Z,21.70
2023-05-14T16:20:43.991Z,21.48
2023-05-14T16:24:47.330Z,21.49
2023-05-14T16:28:49.972Z,21.31
2023-05-14T16:32:54.427Z,21.49
2023-05-14T16:36:57.607Z,21.38
2023-05-14T16:41:00.684Z,21.26
2023-05-14T16:45:04.198Z,21.33
2023-05-14T16:49:08.282Z,21.04
2023-05-14T16:53:11.347Z,20.89
2023-05-14T16:57:14.083Z,20.73
2023-05-14T17:01:17.548Z,20.66
2023-05-14T17:05:22.326Z,20.54
2023-05-14T17:09:27.366Z,20.38
2023-05-14T17:13:30.436Z,20.26
2023-05-14T17:17:53.019Z,20.14
2023-05-14T17:21:57.344Z,20.00
2023-05-14T17:26:00.517Z,20.02
2023-05-14T17:30:03.848Z,19.89
2023-05-14T17:34:10.818Z,19.86
2023-05-14T17:38:15.445Z,19.65
2023-05-14T17:42:18.455Z,19.45
2023-05-14T17:46:21.449Z,19.25
2023-05-14T17:50:24.681Z,19.19
2023-05-14T17:54:29.127Z,19.04
2023-05-14T17:58:32.291Z,18.95
2023-05-14T18:02:35.538Z,18.90
2023-05-14T18:06:38.896Z,18.78
2023-05-14T18:10:43.286Z,18.60
2023-05-14T18:14:46.313Z,18.35
2023-05-14T18:18:51.774Z,17.97
2023-05-14T18:22:54.953Z,17.81
2023-05-14T18:27:00.020Z,17.45
2023-05-14T18:31:05.899Z,17.08
2023-05-14T18:35:09.510Z,16.70
2023-05-14T18:39:12.396Z,16.39
2023-05-14T18:43:18.484Z,16.17
2023-05-14T18:47:21.541Z,15.95
2023-05-14T18:51:25.076Z,15.66
2023-05-14T18:55:28.821Z,15.45
2023-05-14T18:59:33.513Z,15.24
2023-05-14T19:03:42.664Z,15.03
2023-05-14T19:07:48.179Z,14.85
2023-05-14T19:11:51.179Z,14.66
2023-05-14T19:15:57.114Z,14.54
2023-05-14T19:20:00.393Z,14.45
2023-05-14T19:24:03.776Z,14.34
2023-05-14T19:28:07.628Z,14.21
2023-05-14T19:32:12.364Z,14.14
2023-05-14T19:36:15.393Z,14.02
2023-05-14T19:40:20.406Z,13.99
2023-05-14T19:44:23.242Z,13.87
2023-05-14T19:48:28.162Z,13.74
2023-05-14T19:52:30.960Z,13.67
2023-05-14T19:56:34.465Z,13.60
2023-05-14T20:00:37.886Z,13.54
2023-05-14T20:04:42.886Z,13.53
2023-05-14T20:08:46.627Z,13.55
2023-05-14T20:12:49.618Z,13.51
2023-05-14T20:16:53.308Z,13.46
2023-05-14T20:20:57.465Z,13.41
2023-05-14T20:25:00.533Z,13.42
2023-05-14T20:29:04.260Z,13.48
2023-05-14T20:33:09.197Z,13.42
2023-05-14T20:37:15.491Z,13.64
2023-05-14T20:41:18.235Z,13.90
2023-05-14T20:45:21.210Z,13.90
2023-05-14T20:49:24.210Z,14.04
2023-05-14T20:53:33.402Z,14.12
2023-05-14T20:57:36.175Z,14.21
2023-05-14T21:01:39.145Z,14.45
2023-05-14T21:05:43.887Z,14.63
2023-05-14T21:09:52.703Z,14.62
2023-05-14T21:14:01.297Z,14.61
2023-05-14T21:18:05.210Z,14.93
2023-05-14T21:22:08.097Z,15.04
2023-05-14T21:26:12.873Z,15.13
2023-05-14T21:30:16.491Z,15.22
2023-05-14T21:34:19.786Z,15.18
2023-05-14T21:38:22.869Z,15.23
2023-05-14T21:42:27.206Z,15.25
2023-05-14T21:46:30.380Z,15.27
2023-05-14T21:50:33.981Z,15.36
2023-05-14T21:54:36.757Z,15.32
2023-05-14T21:58:41.727Z,15.21
2023-05-14T22:02:44.911Z,15.18
2023-05-14T22:06:48.562Z,15.19
2023-05-14T22:10:53.621Z,15.12
2023-05-14T22:14:59.253Z,15.02
2023-05-14T22:19:02.617Z,15.08
2023-05-14T22:23:06.275Z,15.04
2023-05-14T22:27:09.055Z,15.08
2023-05-14T22:31:13.406Z,15.18
2023-05-14T22:35:16.176Z,15.19
2023-05-14T22:39:19.382Z,15.12
2023-05-14T22:43:22.226Z,15.16
2023-05-14T22:47:27.205Z,15.09
2023-05-14T22:51:30.267Z,15.06
2023-05-14T22:55:33.308Z,15.13
2023-05-14T22:59:36.866Z,15.02
2023-05-14T23:03:40.769Z,15.00
2023-05-14T23:07:43.844Z,15.06
2023-05-14T23:11:49.055Z,14.97
2023-05-14T23:15:52.115Z,14.98
2023-05-14T23:19:56.760Z,14.94
2023-05-14T23:23:59.652Z,14.89
2023-05-14T23:28:02.431Z,14.79
2023-05-14T23:32:05.648Z,14.82
2023-05-14T23:36:11.697Z,14.78
2023-05-14T23:40:15.945Z,14.75
2023-05-14T23:44:19.173Z,14.86
2023-05-14T23:48:21.555Z,14.83
2023-05-14T23:52:25.598Z,14.74
2023-05-14T23:56:29.396Z,14.76
